CheckWX is a tool to help pilots better visualize weather data.  It is not intended as a substitute for an official pre-flight weather briefing.

06:51:13 UTC

ETSN TAF
Neuburg Airport
Germany
TAF ETSN 270420Z 2705/2714 07005KT 9999 NSW FEW300 BY ETGL

May-27@
05:00 UTC

May-27 @ 05:00 UTC

May-27@
14:00 UTC

May-27 @ 14:00 UTC

TAF ETSN 270420Z 2705/2714 07005KT 9999 NSW FEW300 BY ETGL
Wind
  • 070° at 5 KTS
Conditions
No significant weather
Cloud Levels
  • Few at 30,000' AGL